Time;durP1;ratioP1;P1;durP2;ratioP2;P2;SDS_P1;SDS_P2;PMS_P1;PMS_P2;Temp;Humidity;BMP_temperature;BMP_pressure;BME280_temperature;BME280_humidity;BME280_pressure;Samples;Min_cycle;Max_cycle;Signal;HPM_P1;HPM_P2
2022/01/11 00:01:00;;;;;;;25.97;13.33;;;;;;;3.17;90.59;102308.91;5044540;28;20317;-81
2022/01/11 00:03:26;;;;;;;27.97;14.27;;;;;;;3.15;90.08;102306.28;5057132;28;20255;-81
2022/01/11 00:05:57;;;;;;;22.80;12.30;;;;;;;3.14;90.61;102310.66;5046518;28;20202;-82
2022/01/11 00:08:30;;;;;;;23.50;12.17;;;;;;;3.13;90.16;102314.19;5051334;28;20255;-82
2022/01/11 00:11:03;;;;;;;27.23;13.83;;;;;;;3.11;90.61;102312.44;5060231;28;20317;-82
2022/01/11 00:13:32;;;;;;;30.53;14.73;;;;;;;3.08;90.32;102308.06;5061694;28;20221;-81
2022/01/11 00:15:58;;;;;;;28.67;13.33;;;;;;;3.07;90.13;102308.06;5067893;28;20207;-82
2022/01/11 00:18:25;;;;;;;27.17;14.37;;;;;;;3.07;90.88;102310.69;5073289;28;20215;-82
2022/01/11 00:20:52;;;;;;;35.10;14.97;;;;;;;3.09;90.66;102316.84;5061600;28;20228;-82
2022/01/11 00:26:03;;;;;;;25.87;14.00;;;;;;;3.11;91.17;102315.06;5067217;28;20569;-82
2022/01/11 00:28:31;;;;;;;22.77;12.63;;;;;;;3.12;90.44;102322.09;5055763;28;20205;-81
2022/01/11 00:30:58;;;;;;;22.70;13.03;;;;;;;3.11;91.07;102320.34;5055371;28;20753;-82
2022/01/11 00:33:33;;;;;;;26.43;13.77;;;;;;;3.11;91.33;102330.88;5054398;28;20478;-82
2022/01/11 00:36:00;;;;;;;32.00;14.10;;;;;;;3.08;90.46;102323.84;5056393;28;20216;-81
2022/01/11 00:38:31;;;;;;;29.20;14.17;;;;;;;3.08;91.39;102328.25;5054495;28;20205;-82
2022/01/11 00:41:00;;;;;;;30.60;13.93;;;;;;;3.07;90.78;102327.38;5044293;28;20695;-83
2022/01/11 00:43:28;;;;;;;21.63;13.23;;;;;;;3.08;90.86;102334.38;5050949;28;20253;-83
2022/01/11 00:45:58;;;;;;;24.17;13.83;;;;;;;3.06;90.68;102335.28;5044256;28;20213;-83
2022/01/11 00:48:25;;;;;;;32.43;15.13;;;;;;;3.06;90.81;102335.28;5043371;28;20218;-82
2022/01/11 00:50:52;;;;;;;31.77;14.83;;;;;;;3.04;90.89;102339.69;5046989;28;20232;-82
2022/01/11 00:53:19;;;;;;;30.37;14.67;;;;;;;3.04;90.99;102337.94;5054480;28;20275;-81
2022/01/11 00:55:47;;;;;;;34.03;15.97;;;;;;;3.04;91.12;102334.44;5054738;28;20213;-81
2022/01/11 00:58:15;;;;;;;31.90;15.37;;;;;;;3.03;91.26;102332.69;5045387;28;20210;-82
2022/01/11 01:00:41;;;;;;;31.20;14.77;;;;;;;3.03;90.54;102336.19;5062190;28;20229;-82
2022/01/11 01:03:09;;;;;;;27.97;14.17;;;;;;;3.03;90.92;102336.19;5039909;28;20214;-81
2022/01/11 01:05:36;;;;;;;30.17;14.47;;;;;;;3.02;90.47;102352.00;5042666;28;20206;-81
2022/01/11 01:08:05;;;;;;;30.70;15.43;;;;;;;2.99;91.15;102346.75;5054714;28;20581;-81
2022/01/11 01:10:37;;;;;;;28.87;14.73;;;;;;;2.99;91.05;102347.63;5054264;28;20235;-82
2022/01/11 01:13:06;;;;;;;28.73;15.17;;;;;;;2.99;90.65;102354.63;5048086;28;20593;-81
2022/01/11 01:15:34;;;;;;;33.97;14.50;;;;;;;2.98;90.77;102350.25;5054274;28;20551;-81
2022/01/11 01:18:01;;;;;;;28.03;14.30;;;;;;;2.97;90.63;102357.28;5043356;28;20297;-82
2022/01/11 01:20:29;;;;;;;31.37;15.70;;;;;;;2.96;90.78;102352.00;5056817;28;20226;-82
2022/01/11 01:22:56;;;;;;;26.03;13.93;;;;;;;2.94;91.09;102359.03;5072188;28;20204;-82
2022/01/11 01:25:23;;;;;;;28.10;14.97;;;;;;;2.94;90.68;102364.28;5056361;28;20210;-82
2022/01/11 01:27:52;;;;;;;34.00;16.17;;;;;;;2.92;90.43;102360.78;5053879;28;20663;-83
2022/01/11 01:30:20;;;;;;;37.20;16.03;;;;;;;2.92;90.83;102363.44;5052054;28;20600;-80
2022/01/11 01:32:48;;;;;;;29.07;15.20;;;;;;;2.90;90.59;102368.69;5034344;28;20731;-83
2022/01/11 01:35:16;;;;;;;26.23;14.37;;;;;;;2.90;91.21;102362.56;5052243;28;20235;-82
2022/01/11 01:37:43;;;;;;;27.70;13.53;;;;;;;2.89;91.03;102369.56;5053778;28;20209;-82
2022/01/11 01:40:13;;;;;;;27.17;13.70;;;;;;;2.88;91.02;102374.84;5053697;28;20606;-83
2022/01/11 01:42:40;;;;;;;19.60;12.60;;;;;;;2.85;90.45;102378.38;5053584;28;20882;-82
2022/01/11 01:45:07;;;;;;;26.13;12.80;;;;;;;2.78;90.05;102374.03;5049954;28;20208;-82
2022/01/11 01:47:33;;;;;;;23.30;12.27;;;;;;;2.70;90.50;102378.41;5057457;28;20213;-81
2022/01/11 01:50:00;;;;;;;30.30;14.20;;;;;;;2.63;90.57;102379.34;5046616;28;20233;-81
2022/01/11 01:52:27;;;;;;;19.57;12.07;;;;;;;2.56;90.50;102381.09;5053242;28;20206;-80
2022/01/11 01:54:55;;;;;;;23.97;13.07;;;;;;;2.49;89.88;102389.03;5054086;28;20205;-81
2022/01/11 01:57:22;;;;;;;20.83;12.67;;;;;;;2.44;89.57;102394.28;5053582;28;20830;-80
2022/01/11 01:59:48;;;;;;;22.13;12.77;;;;;;;2.39;90.31;102396.03;5053489;28;20320;-82
2022/01/11 02:02:15;;;;;;;26.67;12.83;;;;;;;2.35;89.66;102384.66;5053888;28;20212;-81
2022/01/11 02:04:42;;;;;;;20.23;12.03;;;;;;;2.32;89.32;102389.94;5053149;28;20201;-83
2022/01/11 02:07:09;;;;;;;21.87;12.70;;;;;;;2.30;89.25;102396.06;5054599;28;20602;-83
2022/01/11 02:09:36;;;;;;;20.60;12.07;;;;;;;2.28;89.90;102400.44;5054106;28;20316;-82
2022/01/11 02:12:05;;;;;;;19.93;11.67;;;;;;;2.21;89.06;102396.06;5051447;28;20202;-81
2022/01/11 02:14:31;;;;;;;18.57;11.37;;;;;;;2.16;89.49;102397.81;5040377;28;20778;-81
2022/01/11 02:17:00;;;;;;;22.00;11.83;;;;;;;2.09;88.81;102402.22;5052188;28;20216;-83
2022/01/11 02:19:27;;;;;;;20.83;11.67;;;;;;;2.02;89.00;102406.59;5054097;28;20225;-84
2022/01/11 02:21:55;;;;;;;17.13;12.07;;;;;;;1.99;89.11;102410.97;5052573;28;20269;-83
2022/01/11 02:24:21;;;;;;;20.83;12.77;;;;;;;1.96;89.29;102403.09;5053747;28;20201;-83
2022/01/11 02:26:49;;;;;;;20.80;11.40;;;;;;;1.94;88.89;102412.75;5054185;28;20235;-83
2022/01/11 02:29:16;;;;;;;21.63;11.23;;;;;;;1.91;88.76;102418.00;5049939;28;20229;-83
2022/01/11 02:31:42;;;;;;;19.63;11.57;;;;;;;1.87;89.20;102413.59;5051158;28;20226;-82
2022/01/11 02:34:09;;;;;;;20.43;12.03;;;;;;;1.86;88.82;102425.84;5051401;28;20475;-82
2022/01/11 02:36:36;;;;;;;23.63;11.90;;;;;;;1.83;88.70;102419.72;5042431;28;20301;-82
2022/01/11 02:39:05;;;;;;;22.67;12.57;;;;;;;1.80;88.52;102420.59;5057865;28;20197;-82
2022/01/11 02:41:32;;;;;;;20.27;12.07;;;;;;;1.78;89.13;102421.50;5058278;28;20226;-82
2022/01/11 02:43:59;;;;;;;27.10;12.73;;;;;;;1.76;89.28;102421.47;5054145;28;20213;-82
2022/01/11 02:46:26;;;;;;;27.43;13.03;;;;;;;1.75;88.88;102422.34;5046239;28;20211;-83
2022/01/11 02:48:55;;;;;;;26.13;13.30;;;;;;;1.75;88.83;102424.97;5054116;28;20300;-83
2022/01/11 02:51:24;;;;;;;27.70;13.70;;;;;;;1.76;88.90;102426.75;5050436;28;20213;-83
2022/01/11 02:53:52;;;;;;;26.77;12.70;;;;;;;1.77;89.79;102432.88;5043059;28;20236;-83
2022/01/11 02:56:21;;;;;;;30.00;13.77;;;;;;;1.78;89.54;102430.25;5047652;28;20220;-82
2022/01/11 02:58:48;;;;;;;26.67;13.57;;;;;;;1.79;89.16;102439.00;5035060;28;20203;-83
2022/01/11 03:01:14;;;;;;;28.90;13.97;;;;;;;1.79;89.26;102439.88;5050636;28;20215;-84
2022/01/11 03:03:41;;;;;;;27.53;14.43;;;;;;;1.80;89.67;102432.84;5041473;28;20209;-83
2022/01/11 03:06:08;;;;;;;27.70;13.73;;;;;;;1.80;89.72;102430.22;5049588;28;20202;-82
2022/01/11 03:08:36;;;;;;;32.27;14.43;;;;;;;1.81;89.67;102442.47;5053319;28;20218;-83
2022/01/11 03:11:05;;;;;;;26.87;14.30;;;;;;;1.80;89.22;102433.72;5051612;28;20568;-82
2022/01/11 03:13:35;;;;;;;27.97;14.03;;;;;;;1.80;89.90;102436.34;5046723;28;20729;-82
2022/01/11 03:16:02;;;;;;;28.27;13.97;;;;;;;1.81;89.36;102443.34;5034597;28;20551;-82
2022/01/11 03:18:28;;;;;;;23.87;13.20;;;;;;;1.82;89.97;102439.84;5052621;28;20209;-81
2022/01/11 03:20:55;;;;;;;29.40;15.00;;;;;;;1.84;89.41;102448.63;5052224;28;20236;-82
2022/01/11 03:23:22;;;;;;;30.67;14.40;;;;;;;1.85;89.80;102445.13;5048937;28;20716;-83
2022/01/11 03:25:51;;;;;;;27.33;13.90;;;;;;;1.86;89.82;102453.88;5055323;28;20924;-82
2022/01/11 03:28:18;;;;;;;30.07;13.63;;;;;;;1.86;90.10;102451.25;5055546;28;20218;-83
2022/01/11 03:30:46;;;;;;;29.13;14.23;;;;;;;1.85;90.12;102450.38;5047558;28;20248;-82
2022/01/11 03:33:13;;;;;;;25.70;13.70;;;;;;;1.85;90.12;102460.88;5079184;22;20575;-72
2022/01/11 03:35:41;;;;;;;24.00;13.40;;;;;;;1.82;89.55;102455.63;5047474;28;20201;-72
2022/01/11 03:38:10;;;;;;;26.60;14.43;;;;;;;1.77;89.40;102452.13;5048514;28;20221;-71
2022/01/11 03:40:36;;;;;;;31.70;14.47;;;;;;;1.74;89.75;102457.38;5048338;28;20218;-71
2022/01/11 03:43:03;;;;;;;19.63;12.77;;;;;;;1.71;89.39;102450.38;5045812;28;20208;-71
2022/01/11 03:45:30;;;;;;;19.03;11.83;;;;;;;1.66;89.38;102445.97;5055185;22;20202;-80
2022/01/11 03:47:59;;;;;;;20.73;12.70;;;;;;;1.64;89.99;102455.59;5061406;28;20316;-79
2022/01/11 03:50:27;;;;;;;21.70;13.60;;;;;;;1.61;89.79;102453.81;5055879;28;20674;-80
2022/01/11 03:52:59;;;;;;;31.10;13.73;;;;;;;1.60;89.33;102454.72;5056190;28;20575;-80
2022/01/11 03:55:44;;;;;;;22.43;11.77;;;;;;;1.56;89.81;102463.47;5047081;28;20575;-79
2022/01/11 03:58:11;;;;;;;21.60;11.03;;;;;;;1.49;89.28;102461.69;5054340;28;20233;-79
2022/01/11 04:00:38;;;;;;;21.00;11.37;;;;;;;1.42;88.89;102459.94;5050642;28;20218;-79
2022/01/11 04:03:07;;;;;;;17.80;10.80;;;;;;;1.36;89.61;102457.28;5049554;28;20234;-80
2022/01/11 04:05:34;;;;;;;22.00;11.87;;;;;;;1.34;89.50;102456.38;5049107;28;20553;-79
2022/01/11 04:08:01;;;;;;;23.63;12.40;;;;;;;1.33;89.48;102459.88;5043491;28;20296;-79
2022/01/11 04:10:28;;;;;;;25.10;12.53;;;;;;;1.30;89.21;102455.50;5055872;28;20209;-80
2022/01/11 04:12:54;;;;;;;24.03;12.57;;;;;;;1.29;89.54;102456.38;5049365;28;20211;-79
2022/01/11 04:15:21;;;;;;;23.57;12.77;;;;;;;1.29;89.02;102458.09;5045282;28;20225;-80
2022/01/11 04:17:47;;;;;;;25.33;11.23;;;;;;;1.27;89.48;102462.47;5037624;28;20216;-80
2022/01/11 04:20:18;;;;;;;23.97;12.67;;;;;;;1.23;89.08;102471.22;5049013;28;20210;-79
2022/01/11 04:22:46;;;;;;;26.47;12.70;;;;;;;1.17;89.08;102468.56;5035079;28;20220;-79
2022/01/11 04:25:12;;;;;;;24.10;13.70;;;;;;;1.11;88.83;102471.16;5045061;28;20218;-80
2022/01/11 04:27:39;;;;;;;21.70;13.77;;;;;;;1.06;88.99;102471.16;5050200;28;20571;-81
2022/01/11 04:30:06;;;;;;;24.10;13.57;;;;;;;1.01;89.13;102468.50;5040575;28;20232;-81
2022/01/11 04:32:33;;;;;;;21.03;12.53;;;;;;;1.00;89.09;102465.88;5051665;28;20210;-80
2022/01/11 04:35:00;;;;;;;23.13;13.67;;;;;;;1.00;89.34;102471.13;5042696;28;20230;-80
2022/01/11 04:37:28;;;;;;;26.77;14.03;;;;;;;0.98;89.22;102462.34;5045063;28;20202;-80
2022/01/11 04:39:55;;;;;;;25.53;13.63;;;;;;;0.96;89.00;102464.09;5042020;28;20221;-79
2022/01/11 04:42:21;;;;;;;22.27;13.03;;;;;;;0.94;88.97;102464.09;5048774;28;20202;-79
2022/01/11 04:44:48;;;;;;;20.97;13.53;;;;;;;0.93;89.11;102471.94;5047261;28;20590;-80
2022/01/11 04:47:15;;;;;;;28.13;13.63;;;;;;;0.90;89.14;102471.91;5063312;28;20304;-79
2022/01/11 04:49:42;;;;;;;23.67;12.70;;;;;;;0.87;88.96;102471.94;5065337;28;20656;-79
2022/01/11 04:52:09;;;;;;;24.77;12.33;;;;;;;0.84;89.18;102474.53;5042723;28;20218;-81
2022/01/11 04:54:37;;;;;;;24.20;12.97;;;;;;;0.81;88.80;102482.38;5049761;28;20593;-80
2022/01/11 04:57:04;;;;;;;29.50;13.13;;;;;;;0.77;88.93;102478.84;5043033;28;20210;-80
2022/01/11 04:59:30;;;;;;;24.10;12.63;;;;;;;0.75;89.12;102484.94;5047448;28;20212;-79
2022/01/11 05:01:57;;;;;;;22.17;12.37;;;;;;;0.72;88.92;102484.97;5046646;28;20209;-80
2022/01/11 05:04:23;;;;;;;23.80;13.47;;;;;;;0.69;88.85;102485.81;5049929;28;20230;-79
2022/01/11 05:06:50;;;;;;;25.50;14.17;;;;;;;0.65;88.96;102478.78;5045666;28;20636;-79
2022/01/11 05:09:17;;;;;;;24.83;13.73;;;;;;;0.63;89.32;102481.38;5050801;28;20577;-79
2022/01/11 05:11:45;;;;;;;24.53;12.43;;;;;;;0.60;89.10;102481.38;5049699;28;20774;-79
2022/01/11 05:14:11;;;;;;;24.57;13.63;;;;;;;0.59;89.04;102482.22;5050406;28;20235;-79
2022/01/11 05:16:38;;;;;;;28.10;14.87;;;;;;;0.59;89.54;102487.47;5054154;28;20216;-79
2022/01/11 05:19:06;;;;;;;28.63;15.67;;;;;;;0.58;89.55;102483.09;5044066;28;20210;-80
2022/01/11 05:21:33;;;;;;;28.27;13.40;;;;;;;0.57;89.33;102481.34;5043284;28;20579;-80
2022/01/11 05:24:00;;;;;;;27.67;13.80;;;;;;;0.57;89.37;102490.94;5049982;28;20241;-79
2022/01/11 05:26:26;;;;;;;28.80;13.23;;;;;;;0.56;89.50;102486.56;5052576;28;20298;-79
2022/01/11 05:28:54;;;;;;;28.07;13.97;;;;;;;0.54;89.35;102489.19;5050326;28;20221;-79
2022/01/11 05:31:21;;;;;;;29.00;15.23;;;;;;;0.53;89.81;102494.44;5045010;28;20213;-79
2022/01/11 05:33:47;;;;;;;29.33;14.63;;;;;;;0.52;89.79;102503.16;5040118;28;20226;-79
2022/01/11 05:36:14;;;;;;;29.53;16.23;;;;;;;0.52;89.78;102504.06;5041299;28;20209;-79
2022/01/11 05:38:40;;;;;;;32.10;16.30;;;;;;;0.51;90.03;102504.91;5044884;28;20644;-79
2022/01/11 05:41:07;;;;;;;41.60;16.43;;;;;;;0.52;89.96;102508.41;5041380;28;20213;-79
2022/01/11 05:43:35;;;;;;;30.90;15.80;;;;;;;0.49;90.02;102503.13;5048273;28;20256;-79
2022/01/11 05:46:03;;;;;;;33.47;16.43;;;;;;;0.48;90.08;102509.25;5046291;28;20272;-79
2022/01/11 05:48:32;;;;;;;34.80;15.90;;;;;;;0.48;89.76;102507.50;5046899;28;20198;-79
2022/01/11 05:50:58;;;;;;;43.63;17.13;;;;;;;0.47;89.88;102510.13;5041227;28;20304;-80
2022/01/11 05:53:25;;;;;;;38.77;16.03;;;;;;;0.47;90.57;102500.50;5045907;28;20240;-79
2022/01/11 05:55:52;;;;;;;36.77;16.70;;;;;;;0.47;90.44;102500.50;5038816;28;20229;-78
2022/01/11 05:58:19;;;;;;;35.30;16.17;;;;;;;0.46;89.95;102504.00;5048904;28;20205;-78
2022/01/11 06:00:45;;;;;;;33.03;15.53;;;;;;;0.47;90.40;102504.88;5041708;28;20201;-79
2022/01/11 06:03:13;;;;;;;34.60;16.53;;;;;;;0.45;90.44;102507.47;5038176;28;20228;-78
2022/01/11 06:05:40;;;;;;;34.00;16.00;;;;;;;0.45;90.58;102511.84;5045296;28;20217;-79
2022/01/11 06:08:07;;;;;;;42.47;17.87;;;;;;;0.43;90.44;102514.44;5044063;28;20640;-78
2022/01/11 06:10:34;;;;;;;35.60;17.30;;;;;;;0.41;90.61;102515.28;5051457;28;20623;-79
2022/01/11 06:13:01;;;;;;;36.37;17.77;;;;;;;0.39;90.53;102523.13;5044285;28;20210;-78
2022/01/11 06:15:29;;;;;;;32.10;16.80;;;;;;;0.40;91.08;102521.41;5043379;28;20225;-79
2022/01/11 06:17:55;;;;;;;28.07;15.70;;;;;;;0.41;90.82;102513.56;5047115;28;20210;-78
2022/01/11 06:20:23;;;;;;;32.17;16.27;;;;;;;0.42;91.03;102520.56;5040979;28;20214;-78
2022/01/11 06:22:50;;;;;;;29.87;15.40;;;;;;;0.44;91.09;102528.44;5046947;28;20224;-79
2022/01/11 06:25:16;;;;;;;35.20;15.87;;;;;;;0.45;91.09;102524.94;5042792;28;20213;-80
2022/01/11 06:27:43;;;;;;;33.67;15.57;;;;;;;0.45;91.31;102530.19;5043005;28;20210;-79
2022/01/11 06:30:11;;;;;;;32.93;16.30;;;;;;;0.47;91.43;102529.34;5038700;28;20248;-79
2022/01/11 06:32:39;;;;;;;32.60;18.03;;;;;;;0.50;91.54;102537.22;5044860;28;20646;-80
2022/01/11 06:35:07;;;;;;;34.30;16.77;;;;;;;0.52;91.83;102532.88;5042772;28;20240;-79
2022/01/11 06:37:35;;;;;;;37.53;18.13;;;;;;;0.53;91.48;102539.88;5045719;28;20208;-79
2022/01/11 06:40:02;;;;;;;35.23;16.73;;;;;;;0.54;91.72;102536.38;5042992;28;20206;-79
2022/01/11 06:42:29;;;;;;;30.50;14.93;;;;;;;0.54;91.85;102532.88;5044076;28;20212;-79
2022/01/11 06:44:56;;;;;;;28.60;15.27;;;;;;;0.56;91.50;102539.00;5049472;28;20313;-79
2022/01/11 06:47:22;;;;;;;28.57;15.63;;;;;;;0.56;91.65;102539.88;5045594;28;20214;-79
2022/01/11 06:49:52;;;;;;;29.97;15.90;;;;;;;0.58;92.06;102539.91;5036700;28;20205;-80
2022/01/11 06:52:20;;;;;;;25.33;13.93;;;;;;;0.55;91.73;102548.63;5040309;28;20209;-80
2022/01/11 06:54:48;;;;;;;28.70;15.10;;;;;;;0.54;91.63;102544.22;5037825;28;20229;-79
2022/01/11 06:57:15;;;;;;;25.40;13.47;;;;;;;0.52;91.32;102550.34;5048049;28;20213;-80
2022/01/11 06:59:42;;;;;;;25.93;14.43;;;;;;;0.49;91.65;102545.09;5045899;28;20205;-79
2022/01/11 07:02:08;;;;;;;22.90;13.70;;;;;;;0.46;91.65;102551.19;5037100;28;20669;-80
2022/01/11 07:04:37;;;;;;;25.27;13.80;;;;;;;0.44;91.63;102549.41;5046347;28;20283;-79
2022/01/11 07:07:04;;;;;;;24.00;13.67;;;;;;;0.43;91.52;102558.13;5043972;28;20237;-79
2022/01/11 07:09:31;;;;;;;26.47;13.87;;;;;;;0.40;91.59;102561.59;5045301;28;20212;-79
2022/01/11 07:12:02;;;;;;;24.73;13.30;;;;;;;0.36;91.32;102565.03;5042687;28;20226;-79
2022/01/11 07:14:29;;;;;;;24.87;14.90;;;;;;;0.33;91.42;102570.28;5039244;28;20230;-79
2022/01/11 07:16:55;;;;;;;22.60;13.50;;;;;;;0.30;91.23;102571.13;5045537;28;20574;-79
2022/01/11 07:19:29;;;;;;;25.43;13.43;;;;;;;0.29;91.38;102573.72;5040095;28;20205;-79
2022/01/11 07:21:58;;;;;;;21.97;13.03;;;;;;;0.28;91.44;102574.59;5044377;28;20198;-79
2022/01/11 07:24:28;;;;;;;26.10;13.47;;;;;;;0.26;91.36;102589.41;5045965;28;20256;-79
2022/01/11 07:26:55;;;;;;;19.73;12.73;;;;;;;0.25;91.26;102587.66;5049829;28;20198;-79
2022/01/11 07:29:23;;;;;;;25.30;13.50;;;;;;;0.26;91.38;102589.41;5052597;28;20576;-79
2022/01/11 07:31:50;;;;;;;19.63;12.93;;;;;;;0.24;91.41;102589.41;5044627;28;20665;-78
2022/01/11 07:34:18;;;;;;;19.67;12.27;;;;;;;0.24;91.36;102591.16;5046874;28;20225;-79
2022/01/11 07:36:45;;;;;;;20.43;13.13;;;;;;;0.22;91.30;102600.72;5044224;28;20224;-79
2022/01/11 07:39:13;;;;;;;30.07;15.30;;;;;;;0.19;91.47;102596.34;5051203;28;20204;-79
2022/01/11 07:41:40;;;;;;;20.87;11.87;;;;;;;0.18;91.29;102596.34;5053100;28;20308;-79
2022/01/11 07:44:07;;;;;;;26.37;13.93;;;;;;;0.17;91.52;102597.22;5053016;28;20231;-80
2022/01/11 07:46:39;;;;;;;28.83;14.57;;;;;;;0.16;91.52;102596.31;5051296;28;20272;-79
2022/01/11 07:49:06;;;;;;;31.60;15.33;;;;;;;0.16;91.39;102595.44;5051170;28;20206;-79
2022/01/11 07:51:37;;;;;;;40.70;15.67;;;;;;;0.17;91.61;102598.09;5053616;28;20215;-79
2022/01/11 07:54:06;;;;;;;37.37;16.07;;;;;;;0.18;91.59;102597.19;5043882;28;20260;-79
2022/01/11 07:56:33;;;;;;;35.57;16.87;;;;;;;0.18;91.63;102601.59;5051776;28;20236;-79
2022/01/11 07:58:59;;;;;;;32.97;17.07;;;;;;;0.18;91.63;102601.59;5052648;28;20205;-78
2022/01/11 08:01:26;;;;;;;64.63;16.20;;;;;;;0.19;91.76;102608.56;5054972;28;20238;-78
2022/01/11 08:03:54;;;;;;;48.73;15.87;;;;;;;0.19;91.76;102609.44;5054774;28;20691;-79
2022/01/11 08:06:20;;;;;;;39.73;17.07;;;;;;;0.21;92.04;102610.34;5050206;28;20615;-79
2022/01/11 08:08:47;;;;;;;89.87;17.03;;;;;;;0.23;92.04;102607.72;5042892;28;20212;-79
2022/01/11 08:11:13;;;;;;;81.90;18.37;;;;;;;0.24;91.81;102615.59;5057418;28;20202;-79
2022/01/11 08:13:40;;;;;;;47.60;18.30;;;;;;;0.25;91.85;102614.75;5052584;28;20664;-79
2022/01/11 08:16:07;;;;;;;143.53;23.27;;;;;;;0.26;92.07;102619.13;5046430;28;20225;-80
2022/01/11 08:18:33;;;;;;;107.50;24.13;;;;;;;0.28;92.39;102621.78;5049678;28;20201;-79
2022/01/11 08:21:01;;;;;;;136.07;25.50;;;;;;;0.29;92.41;102629.66;5044381;28;20206;-77
2022/01/11 08:23:28;;;;;;;162.93;32.30;;;;;;;0.30;92.39;102630.53;5049627;28;20225;-79
2022/01/11 08:25:54;;;;;;;121.33;26.00;;;;;;;0.30;92.45;102633.16;5061942;28;20208;-79
2022/01/11 08:28:21;;;;;;;102.13;20.10;;;;;;;0.32;92.53;102641.91;5050802;28;20221;-80
2022/01/11 08:30:48;;;;;;;76.93;17.07;;;;;;;0.30;92.38;102638.38;5039067;28;20579;-78
2022/01/11 08:33:14;;;;;;;118.47;19.03;;;;;;;0.30;92.39;102635.78;5049870;28;20255;-79
2022/01/11 08:35:41;;;;;;;96.37;17.17;;;;;;;0.29;92.53;102637.50;5046511;28;20284;-79
2022/01/11 08:38:09;;;;;;;35.67;14.53;;;;;;;0.29;92.65;102636.63;5046442;28;20208;-78
2022/01/11 08:40:35;;;;;;;55.03;15.83;;;;;;;0.30;92.71;102636.66;5045520;28;20448;-77
2022/01/11 08:43:04;;;;;;;87.17;17.60;;;;;;;0.30;92.82;102638.38;5039696;28;20210;-78
2022/01/11 08:45:31;;;;;;;136.57;22.00;;;;;;;0.32;92.70;102647.16;5048270;28;20194;-78
2022/01/11 08:47:58;;;;;;;43.40;15.47;;;;;;;0.31;92.82;102642.78;5049078;28;20212;-78
2022/01/11 08:50:25;;;;;;;58.60;17.80;;;;;;;0.33;92.81;102635.81;5046984;28;20206;-77
2022/01/11 08:52:52;;;;;;;48.33;16.13;;;;;;;0.34;92.93;102642.81;5050852;28;20575;-78
2022/01/11 08:55:21;;;;;;;39.17;14.93;;;;;;;0.35;92.96;102636.72;5048334;28;20232;-78
2022/01/11 08:57:48;;;;;;;67.70;17.70;;;;;;;0.37;93.19;102634.94;5045892;28;20202;-77
2022/01/11 09:00:18;;;;;;;58.07;16.50;;;;;;;0.37;92.99;102639.31;5050323;28;20237;-77
2022/01/11 09:02:46;;;;;;;52.37;17.10;;;;;;;0.38;93.34;102647.19;5042762;28;20241;-77
2022/01/11 09:05:13;;;;;;;60.07;16.73;;;;;;;0.38;93.32;102646.31;5043440;28;20209;-77
2022/01/11 09:07:39;;;;;;;176.57;27.53;;;;;;;0.40;93.46;102647.22;5032786;28;20213;-77
2022/01/11 09:10:07;;;;;;;43.80;17.07;;;;;;;0.42;93.39;102646.38;5044496;28;20224;-76
2022/01/11 09:12:35;;;;;;;55.37;16.93;;;;;;;0.46;93.68;102649.91;5043502;28;20263;-76
2022/01/11 09:15:02;;;;;;;62.73;19.10;;;;;;;0.49;93.92;102648.19;5047337;28;20232;-77
2022/01/11 09:17:29;;;;;;;133.50;21.83;;;;;;;0.54;94.09;102654.34;5057664;28;20210;-77
2022/01/11 09:19:56;;;;;;;145.33;24.00;;;;;;;0.59;94.09;102650.03;5047936;28;20216;-77
2022/01/11 09:22:22;;;;;;;278.43;30.73;;;;;;;0.64;93.97;102640.47;5051595;28;20206;-78
2022/01/11 09:24:49;;;;;;;130.50;22.73;;;;;;;0.71;94.46;102657.16;5048256;28;20229;-77
2022/01/11 09:27:15;;;;;;;112.23;21.93;;;;;;;0.77;94.52;102653.69;5044099;28;20741;-78
2022/01/11 09:29:44;;;;;;;189.03;26.03;;;;;;;0.81;94.57;102653.75;5032029;28;20236;-77
2022/01/11 09:32:12;;;;;;;76.60;20.17;;;;;;;0.87;94.89;102655.53;5032839;28;20213;-77
2022/01/11 09:34:39;;;;;;;105.90;22.97;;;;;;;0.92;94.89;102665.19;5052530;22;20236;-73
2022/01/11 09:37:06;;;;;;;147.50;26.10;;;;;;;0.96;95.13;102655.59;5002148;28;20235;-76
2022/01/11 09:39:33;;;;;;;95.13;21.33;;;;;;;0.99;95.08;102656.53;5010463;28;20634;-73
2022/01/11 09:42:01;;;;;;;112.00;24.77;;;;;;;1.01;94.95;102651.28;5010872;28;20297;-74
2022/01/11 09:44:28;;;;;;;97.97;23.13;;;;;;;1.04;95.42;102652.19;5005998;28;20207;-72
2022/01/11 09:46:56;;;;;;;94.20;21.63;;;;;;;1.07;95.21;102646.09;5005785;28;20235;-73
2022/01/11 09:49:22;;;;;;;122.87;22.20;;;;;;;1.08;95.06;102642.56;5003848;28;20210;-73
2022/01/11 09:51:49;;;;;;;74.73;20.13;;;;;;;1.12;95.67;102646.09;5017968;28;20214;-74
2022/01/11 09:54:19;;;;;;;165.93;25.77;;;;;;;1.14;95.73;102645.25;5013646;28;20211;-72
2022/01/11 09:56:45;;;;;;;139.60;23.87;;;;;;;1.18;95.77;102646.16;5007394;28;20242;-72
2022/01/11 09:59:12;;;;;;;108.77;22.90;;;;;;;1.21;96.08;102643.56;5000742;28;20204;-73
2022/01/11 10:01:39;;;;;;;107.40;23.70;;;;;;;1.25;95.53;102645.34;5010151;28;20199;-73
2022/01/11 10:04:10;;;;;;;111.90;22.30;;;;;;;1.28;95.87;102645.34;5008853;28;20199;-73
2022/01/11 10:06:41;;;;;;;102.33;22.40;;;;;;;1.31;95.76;102642.75;5008327;28;20235;-73
2022/01/11 10:09:13;;;;;;;70.77;20.20;;;;;;;1.34;95.94;102651.53;4999305;28;20215;-73
2022/01/11 10:11:41;;;;;;;99.73;23.90;;;;;;;1.39;96.21;102643.69;5010115;28;20203;-72
2022/01/11 10:14:19;;;;;;;123.47;23.77;;;;;;;1.44;96.18;102646.31;5004454;28;20203;-73
2022/01/11 10:16:46;;;;;;;59.90;21.07;;;;;;;1.47;96.30;102646.34;5009448;28;20589;-71
2022/01/11 10:19:26;;;;;;;94.23;23.80;;;;;;;1.49;96.20;102639.34;5012080;28;20229;-74
2022/01/11 10:21:54;;;;;;;123.60;23.93;;;;;;;1.52;96.37;102636.75;4999902;28;20656;-75
2022/01/11 10:24:27;;;;;;;168.00;28.40;;;;;;;1.54;96.52;102640.25;4996406;28;20249;-75
2022/01/11 10:26:56;;;;;;;116.47;24.83;;;;;;;1.57;96.48;102629.78;5002997;28;20584;-75
2022/01/11 10:29:29;;;;;;;141.37;24.50;;;;;;;1.58;96.83;102628.91;4990699;28;20302;-75
2022/01/11 10:31:57;;;;;;;149.53;24.60;;;;;;;1.58;96.95;102624.53;5003011;28;20215;-74
2022/01/11 10:34:29;;;;;;;93.63;23.00;;;;;;;1.61;97.00;102628.94;4990764;28;20696;-74
2022/01/11 10:36:56;;;;;;;97.30;23.53;;;;;;;1.65;96.62;102633.31;4997567;28;20257;-74
2022/01/11 10:39:29;;;;;;;106.00;23.73;;;;;;;1.68;96.70;102635.94;5010176;28;20210;-74
2022/01/11 10:41:57;;;;;;;106.87;22.63;;;;;;;1.70;96.38;102635.09;4990067;28;20727;-74
2022/01/11 10:44:48;;;;;;;147.20;26.27;;;;;;;1.71;96.55;102639.47;5002517;28;20218;-73
2022/01/11 10:47:26;;;;;;;72.03;20.50;;;;;;;1.73;97.31;102635.13;5006846;28;20278;-74
2022/01/11 10:49:57;;;;;;;83.90;19.97;;;;;;;1.78;97.19;102642.16;5002038;28;20218;-74
2022/01/11 10:52:25;;;;;;;90.83;22.17;;;;;;;1.79;97.31;102639.53;5009237;28;20584;-75
2022/01/11 10:54:53;;;;;;;76.37;19.83;;;;;;;1.83;97.26;102640.41;5013287;28;20206;-75
2022/01/11 10:57:22;;;;;;;107.77;23.27;;;;;;;1.84;97.15;102639.53;5013701;28;20226;-74
2022/01/11 11:00:30;;;;;;;89.73;21.70;;;;;;;1.85;97.13;102641.28;5000991;28;20219;-75
2022/01/11 11:03:04;;;;;;;196.33;26.43;;;;;;;1.90;96.99;102647.44;4979186;28;20219;-74
2022/01/11 11:05:35;;;;;;;60.50;19.20;;;;;;;1.93;96.95;102642.22;5001949;28;20209;-74
2022/01/11 11:08:08;;;;;;;57.20;19.43;;;;;;;1.97;96.91;102652.72;4996588;28;20585;-75
2022/01/11 11:10:44;;;;;;;101.97;23.57;;;;;;;2.00;96.89;102647.47;5009915;28;20217;-74
2022/01/11 11:13:18;;;;;;;151.37;26.33;;;;;;;2.05;97.24;102648.38;5006087;28;20277;-74
2022/01/11 11:15:45;;;;;;;176.70;27.67;;;;;;;2.07;97.12;102648.38;5000149;28;20244;-75
2022/01/11 11:18:30;;;;;;;102.53;22.20;;;;;;;2.11;97.10;102651.91;5003523;28;20699;-74
2022/01/11 11:21:13;;;;;;;98.73;20.40;;;;;;;2.13;97.37;102650.16;4999055;28;20294;-74
2022/01/11 11:23:40;;;;;;;152.67;25.10;;;;;;;2.16;96.84;102652.78;5003296;28;20240;-74